Time;durP1;ratioP1;P1;durP2;ratioP2;P2;SDS_P1;SDS_P2;PMS_P1;PMS_P2;Temp;Humidity;BMP_temperature;BMP_pressure;BME280_temperature;BME280_humidity;BME280_pressure;Samples;Min_cycle;Max_cycle;Signal;HPM_P1;HPM_P2
2022/12/15 00:39:05;;;;;;;32.13;17.85;;;-1.00;99.90;;;;;;4976671;28;20196;-75
2022/12/15 00:41:31;;;;;;;29.13;17.77;;;-1.00;99.90;;;;;;4991693;28;20186;-76
2022/12/15 00:43:56;;;;;;;28.00;17.90;;;-1.00;99.90;;;;;;4973895;28;20636;-77
2022/12/15 00:50:50;;;;;;;32.17;18.25;;;-1.10;99.90;;;;;;4991665;28;20208;-75
2022/12/15 01:21:57;;;;;;;41.42;22.88;;;-1.10;99.90;;;;;;5003990;28;20227;-76
2022/12/15 01:24:23;;;;;;;33.83;18.63;;;-1.10;99.90;;;;;;4981316;28;20202;-76
2022/12/15 01:26:49;;;;;;;26.90;17.27;;;-1.10;99.90;;;;;;4981972;28;20197;-76
2022/12/15 01:29:14;;;;;;;26.53;16.90;;;-1.10;99.90;;;;;;4965634;28;20698;-76
2022/12/15 01:31:42;;;;;;;34.23;19.07;;;-1.00;99.90;;;;;;5001635;28;20210;-77
2022/12/15 01:34:07;;;;;;;29.98;17.45;;;-1.10;99.90;;;;;;4958124;28;20194;-78
2022/12/15 01:36:33;;;;;;;30.10;18.20;;;-1.10;99.90;;;;;;4973467;28;20196;-77
2022/12/15 01:38:59;;;;;;;32.40;18.00;;;-1.10;99.90;;;;;;4991151;28;20189;-77
2022/12/15 01:41:25;;;;;;;30.90;17.45;;;-1.10;99.90;;;;;;4940876;28;20263;-78
2022/12/15 01:43:50;;;;;;;30.30;17.03;;;-1.10;99.90;;;;;;4990088;28;20269;-78
2022/12/15 01:46:19;;;;;;;32.63;18.57;;;-1.10;99.90;;;;;;4973064;28;20840;-78
2022/12/15 01:48:58;;;;;;;33.97;19.08;;;-1.10;99.90;;;;;;4973030;28;20220;-78
2022/12/15 01:51:27;;;;;;;33.92;19.77;;;-1.10;99.90;;;;;;4991100;28;20209;-76
2022/12/15 01:54:02;;;;;;;33.00;18.55;;;-1.00;99.90;;;;;;4990521;28;20177;-76
2022/12/15 01:56:32;;;;;;;37.15;20.88;;;-1.00;99.90;;;;;;4990200;28;20165;-76
2022/12/15 01:59:01;;;;;;;35.40;21.02;;;-1.00;99.90;;;;;;4990119;28;20189;-75
2022/12/15 02:01:26;;;;;;;34.90;18.48;;;-1.00;99.90;;;;;;4956260;28;20210;-77
2022/12/15 02:03:52;;;;;;;34.40;19.07;;;-1.00;99.90;;;;;;4989897;28;20174;-76
2022/12/15 02:06:21;;;;;;;34.53;19.40;;;-1.00;99.90;;;;;;4972193;28;20209;-77
2022/12/15 02:08:49;;;;;;;31.65;19.15;;;-1.10;99.90;;;;;;4989819;28;20176;-75
2022/12/15 02:11:15;;;;;;;33.90;18.92;;;-1.00;99.90;;;;;;4989945;28;20177;-75
2022/12/15 02:14:02;;;;;;;33.67;17.80;;;-1.00;99.90;;;;;;4989383;28;20178;-75
2022/12/15 02:17:09;;;;;;;34.65;20.15;;;-1.00;99.90;;;;;;4989727;28;20185;-76
2022/12/15 02:20:12;;;;;;;35.85;19.45;;;-1.00;99.90;;;;;;4981696;28;20676;-74
2022/12/15 02:22:56;;;;;;;38.10;20.00;;;-1.00;99.90;;;;;;4989605;28;20248;-75
2022/12/15 02:25:52;;;;;;;31.38;19.25;;;-1.00;99.90;;;;;;4989826;28;20544;-74
2022/12/15 02:28:38;;;;;;;36.13;20.00;;;-1.00;99.90;;;;;;4989798;28;20167;-75
2022/12/15 02:34:07;;;;;;;33.60;18.75;;;-1.10;99.90;;;;;;4961435;28;20249;-76
2022/12/15 02:36:40;;;;;;;33.47;18.95;;;-1.00;99.90;;;;;;4971909;28;20178;-75
2022/12/15 02:39:05;;;;;;;35.47;20.33;;;-1.10;99.90;;;;;;4971799;28;20308;-76
2022/12/15 02:41:45;;;;;;;35.30;20.90;;;-1.10;99.90;;;;;;4955771;28;20320;-75
2022/12/15 02:44:16;;;;;;;39.63;20.10;;;-1.00;99.90;;;;;;4971905;28;20216;-75
2022/12/15 02:47:12;;;;;;;34.33;19.63;;;-1.00;99.90;;;;;;4989619;28;20186;-77
2022/12/15 02:50:10;;;;;;;38.17;19.63;;;-1.00;99.90;;;;;;4989266;28;20649;-77
2022/12/15 02:53:04;;;;;;;37.17;20.65;;;-1.00;99.90;;;;;;4972005;28;20213;-78
2022/12/15 02:55:50;;;;;;;34.55;20.45;;;-1.00;99.90;;;;;;4971747;28;20186;-77
2022/12/15 02:58:16;;;;;;;41.53;22.85;;;-1.00;99.90;;;;;;4971919;28;20182;-78
2022/12/15 03:00:48;;;;;;;34.87;19.93;;;-1.10;99.90;;;;;;4971635;28;20240;-75
2022/12/15 03:03:18;;;;;;;37.88;21.17;;;-1.10;99.90;;;;;;4971505;28;20216;-76
2022/12/15 03:05:53;;;;;;;37.13;21.48;;;-1.10;99.90;;;;;;4972493;28;20198;-74
2022/12/15 03:08:19;;;;;;;33.78;21.10;;;-1.10;99.90;;;;;;4989378;28;20189;-76
2022/12/15 03:10:46;;;;;;;37.20;21.52;;;-1.10;99.90;;;;;;4971568;28;20189;-76
2022/12/15 03:13:13;;;;;;;36.85;21.42;;;-0.90;99.90;;;;;;4971483;28;20259;-77
2022/12/15 03:15:38;;;;;;;35.00;20.85;;;-1.10;99.90;;;;;;4971849;28;20185;-76
2022/12/15 03:18:04;;;;;;;41.00;21.00;;;-1.10;99.90;;;;;;4989175;28;20383;-77
2022/12/15 03:20:30;;;;;;;36.30;20.67;;;-1.10;99.90;;;;;;4989005;28;20209;-76
2022/12/15 03:22:56;;;;;;;38.53;21.10;;;-1.00;99.90;;;;;;4988958;28;20577;-77
2022/12/15 03:25:21;;;;;;;33.33;19.10;;;-1.10;99.90;;;;;;4975226;28;20304;-76
2022/12/15 03:27:47;;;;;;;38.67;21.33;;;-1.10;99.90;;;;;;4992629;28;20177;-75
2022/12/15 03:30:13;;;;;;;32.97;20.33;;;-1.20;99.90;;;;;;4992621;28;20274;-76
2022/12/15 03:32:39;;;;;;;34.97;19.88;;;-1.10;99.90;;;;;;4974926;28;20823;-76
2022/12/15 03:35:05;;;;;;;37.93;20.03;;;-1.10;99.90;;;;;;4975177;28;20345;-77
2022/12/15 03:37:30;;;;;;;32.35;19.02;;;-1.10;99.90;;;;;;4974953;28;20941;-75
2022/12/15 03:39:56;;;;;;;39.67;20.07;;;-1.10;99.90;;;;;;4992592;28;20192;-76
2022/12/15 03:45:06;;;;;;;34.28;19.27;;;-1.00;99.90;;;;;;4992475;28;20225;-75
2022/12/15 03:47:32;;;;;;;31.77;18.07;;;-1.10;99.90;;;;;;4975742;28;20182;-75
2022/12/15 03:49:57;;;;;;;33.17;18.73;;;-1.00;99.90;;;;;;4975120;28;20453;-76
2022/12/15 03:52:23;;;;;;;36.40;19.30;;;-1.10;99.90;;;;;;4993345;28;20205;-78
2022/12/15 03:54:49;;;;;;;43.30;20.50;;;-1.10;99.90;;;;;;4975793;28;20186;-75
2022/12/15 03:57:14;;;;;;;33.40;19.60;;;-1.00;99.90;;;;;;4959540;28;20197;-76
2022/12/15 03:59:40;;;;;;;34.67;19.70;;;-1.10;99.90;;;;;;4975378;28;20193;-76
2022/12/15 04:02:07;;;;;;;34.37;19.80;;;-1.10;99.90;;;;;;4975107;28;20206;-75
2022/12/15 04:04:33;;;;;;;40.58;20.42;;;-1.10;99.90;;;;;;4992406;28;20718;-75
2022/12/15 04:06:59;;;;;;;34.73;18.80;;;-1.10;99.90;;;;;;4992652;28;20263;-75
2022/12/15 04:09:24;;;;;;;34.17;19.87;;;-1.10;99.90;;;;;;4992618;28;20186;-75
2022/12/15 04:11:50;;;;;;;35.13;20.30;;;-1.10;99.90;;;;;;4974756;28;20209;-75
2022/12/15 04:14:15;;;;;;;36.30;20.17;;;-1.10;99.90;;;;;;4992405;28;20202;-75
2022/12/15 04:16:41;;;;;;;35.60;21.10;;;-1.10;99.90;;;;;;4958784;28;20272;-75
2022/12/15 04:21:51;;;;;;;37.22;19.80;;;-1.10;99.90;;;;;;4977569;28;20311;-75
2022/12/15 05:32:36;;;;;;;35.67;21.90;;;-1.10;99.90;;;;;;4976083;28;20224;-78
2022/12/15 05:35:02;;;;;;;41.00;23.63;;;-1.10;99.90;;;;;;4956326;28;20406;-78
2022/12/15 05:37:28;;;;;;;44.70;25.37;;;-1.10;99.90;;;;;;4972505;28;20186;-78
2022/12/15 05:39:53;;;;;;;48.90;29.00;;;-1.10;99.90;;;;;;4940999;28;20466;-78
2022/12/15 05:42:19;;;;;;;52.57;28.30;;;-1.10;99.90;;;;;;4972640;28;20217;-77
2022/12/15 05:44:44;;;;;;;44.77;25.90;;;-1.00;99.90;;;;;;4955780;28;20253;-78
2022/12/15 05:47:11;;;;;;;48.70;27.63;;;-0.90;99.90;;;;;;4955709;28;20738;-78
2022/12/15 05:49:36;;;;;;;56.38;26.40;;;-1.10;99.90;;;;;;4972841;28;20181;-78
2022/12/15 05:52:02;;;;;;;39.33;22.73;;;-1.00;99.90;;;;;;4989706;28;20212;-78
2022/12/15 05:54:28;;;;;;;40.60;22.57;;;-1.00;99.90;;;;;;4972205;28;20672;-77
2022/12/15 05:56:53;;;;;;;39.27;22.07;;;-1.10;99.90;;;;;;4956246;28;20434;-78
2022/12/15 05:59:19;;;;;;;43.03;23.90;;;-1.10;99.90;;;;;;4956403;28;20190;-78
2022/12/15 06:01:45;;;;;;;39.37;22.20;;;-1.10;99.90;;;;;;4972381;28;20236;-78
2022/12/15 06:04:11;;;;;;;41.40;23.23;;;-1.10;99.90;;;;;;4956414;28;20213;-78
2022/12/15 06:06:38;;;;;;;46.35;24.23;;;-1.10;99.90;;;;;;4990862;28;20228;-78
2022/12/15 06:09:03;;;;;;;41.38;23.80;;;-1.00;99.90;;;;;;4972338;28;20182;-78
2022/12/15 06:11:29;;;;;;;46.00;23.90;;;-1.10;99.90;;;;;;4939123;28;20767;-78
2022/12/15 06:13:56;;;;;;;48.10;23.70;;;-1.10;99.90;;;;;;4989026;28;20181;-79
2022/12/15 06:16:24;;;;;;;41.35;21.98;;;-1.00;99.90;;;;;;4990104;28;20648;-78
2022/12/15 06:18:54;;;;;;;43.67;24.38;;;-1.00;99.90;;;;;;4971786;28;20200;-78
2022/12/15 06:21:22;;;;;;;41.88;22.55;;;-1.00;99.90;;;;;;4989262;28;20547;-78
2022/12/15 06:23:48;;;;;;;39.45;22.90;;;-1.00;99.90;;;;;;4955991;28;20276;-78
2022/12/15 06:26:36;;;;;;;40.97;22.88;;;-1.00;99.90;;;;;;4989676;28;20193;-78
2022/12/15 06:29:03;;;;;;;42.80;22.45;;;-1.00;99.90;;;;;;4972483;28;20190;-78
2022/12/15 06:31:30;;;;;;;45.95;22.85;;;-1.10;99.90;;;;;;4971319;28;20205;-77
2022/12/15 06:33:57;;;;;;;41.45;23.00;;;-1.00;99.90;;;;;;4971793;28;20194;-78
2022/12/15 06:36:23;;;;;;;41.15;24.33;;;-1.10;99.90;;;;;;4990361;28;20195;-78
2022/12/15 06:38:49;;;;;;;45.17;23.98;;;-1.10;99.90;;;;;;4955254;28;20182;-78
2022/12/15 06:41:17;;;;;;;40.80;22.73;;;-1.10;99.90;;;;;;4972235;28;20186;-78
2022/12/15 06:43:51;;;;;;;43.65;21.75;;;-1.10;99.90;;;;;;4989824;28;20182;-78
2022/12/15 06:46:17;;;;;;;45.33;24.88;;;-1.10;99.90;;;;;;4956612;28;20228;-77
2022/12/15 06:48:45;;;;;;;40.53;23.30;;;-1.00;99.90;;;;;;4972408;28;20236;-78
2022/12/15 06:51:12;;;;;;;48.17;23.55;;;-1.00;99.90;;;;;;4972179;28;20651;-78
2022/12/15 06:53:39;;;;;;;51.65;24.40;;;-1.00;99.90;;;;;;4975741;28;20276;-78
2022/12/15 06:56:12;;;;;;;42.67;22.92;;;-1.00;99.90;;;;;;4996618;28;20180;-78
2022/12/15 06:58:38;;;;;;;44.10;25.40;;;-1.10;99.90;;;;;;4981425;28;20194;-78
2022/12/15 07:01:06;;;;;;;44.97;22.40;;;-1.10;99.90;;;;;;4967651;28;20195;-78
2022/12/15 07:03:33;;;;;;;41.53;24.67;;;-1.00;99.90;;;;;;4967051;28;20256;-78
2022/12/15 07:06:06;;;;;;;66.20;32.30;;;-1.10;99.90;;;;;;4982803;28;20255;-79
2022/12/15 07:08:33;;;;;;;50.90;25.60;;;-1.00;99.90;;;;;;4967439;28;20170;-77
2022/12/15 07:10:58;;;;;;;40.65;22.67;;;-1.10;99.90;;;;;;4983281;28;20188;-78
2022/12/15 07:13:24;;;;;;;45.33;21.97;;;-1.00;99.90;;;;;;4966968;28;20561;-79
2022/12/15 07:15:50;;;;;;;43.27;23.97;;;-1.10;99.90;;;;;;4980457;28;20186;-78
2022/12/15 07:18:16;;;;;;;44.70;22.37;;;-1.10;99.90;;;;;;4979498;28;20429;-78
2022/12/15 07:20:43;;;;;;;51.28;24.38;;;-1.20;99.90;;;;;;4979679;28;20190;-78
2022/12/15 07:23:08;;;;;;;43.88;22.83;;;-1.20;99.90;;;;;;4979761;28;20216;-78
2022/12/15 07:25:40;;;;;;;44.40;23.43;;;-1.20;99.90;;;;;;4979169;28;20214;-78
2022/12/15 07:28:06;;;;;;;42.17;23.73;;;-1.10;99.90;;;;;;4996697;28;20269;-79
2022/12/15 07:30:33;;;;;;;45.25;24.45;;;-1.10;99.90;;;;;;4996279;28;20182;-78
2022/12/15 07:33:00;;;;;;;53.00;27.05;;;-1.10;99.90;;;;;;4978627;28;20286;-79
2022/12/15 07:35:26;;;;;;;51.33;27.05;;;-1.00;99.90;;;;;;4962594;28;20236;-78
2022/12/15 07:37:51;;;;;;;45.37;24.20;;;-1.00;99.90;;;;;;4978341;28;20185;-78
2022/12/15 07:40:17;;;;;;;65.03;34.77;;;-1.00;99.90;;;;;;4978263;28;20456;-78
2022/12/15 07:42:43;;;;;;;47.63;23.10;;;-1.00;99.90;;;;;;4977972;28;20223;-78
2022/12/15 07:45:10;;;;;;;43.77;24.47;;;-0.90;99.90;;;;;;4975423;28;20213;-78
2022/12/15 07:47:35;;;;;;;44.15;24.58;;;-1.00;99.90;;;;;;4974781;28;20429;-78
2022/12/15 07:50:01;;;;;;;52.70;28.63;;;-1.00;99.90;;;;;;4974426;28;20184;-77
2022/12/15 07:52:27;;;;;;;47.70;26.03;;;-0.90;99.90;;;;;;4991542;28;20452;-78
2022/12/15 07:54:52;;;;;;;43.40;23.70;;;-0.90;99.90;;;;;;4958221;28;20450;-78
2022/12/15 07:57:18;;;;;;;39.80;22.13;;;-0.90;99.90;;;;;;4974450;28;20186;-78
2022/12/15 07:59:45;;;;;;;38.03;22.50;;;-1.00;99.90;;;;;;4974638;28;20190;-78
2022/12/15 08:02:11;;;;;;;44.60;24.42;;;-1.10;99.90;;;;;;4974023;28;20990;-78
2022/12/15 08:04:37;;;;;;;46.15;24.90;;;-1.00;99.90;;;;;;4992143;28;20732;-78
2022/12/15 08:07:03;;;;;;;45.38;24.77;;;-1.00;99.90;;;;;;4957688;28;20182;-77
2022/12/15 08:09:30;;;;;;;48.23;23.27;;;-1.00;99.90;;;;;;4973341;28;20232;-78
2022/12/15 08:11:56;;;;;;;45.30;24.00;;;-1.00;99.90;;;;;;4972921;28;20448;-78
2022/12/15 08:14:22;;;;;;;43.17;23.97;;;-1.10;99.90;;;;;;4973580;28;20243;-77
2022/12/15 08:16:47;;;;;;;41.67;24.13;;;-1.20;99.90;;;;;;4973776;28;20503;-77
2022/12/15 08:19:14;;;;;;;41.73;24.47;;;-1.10;99.90;;;;;;4990934;28;20227;-77
2022/12/15 08:21:41;;;;;;;46.45;26.00;;;-1.00;99.90;;;;;;4973403;28;20280;-77
2022/12/15 08:24:07;;;;;;;43.17;23.48;;;-0.90;99.90;;;;;;4973115;28;20186;-77
2022/12/15 08:26:34;;;;;;;46.25;26.40;;;-0.80;99.90;;;;;;4973525;28;20539;-78
2022/12/15 08:29:02;;;;;;;51.28;28.08;;;-0.70;99.90;;;;;;4975155;28;20239;-78
2022/12/15 08:31:30;;;;;;;49.42;26.65;;;-0.70;99.90;;;;;;4958981;28;20296;-78
2022/12/15 08:33:56;;;;;;;47.00;26.00;;;-0.60;99.90;;;;;;4975447;28;20256;-78
2022/12/15 08:36:22;;;;;;;51.87;27.40;;;-0.60;99.90;;;;;;4975041;28;20200;-78
2022/12/15 08:38:48;;;;;;;73.13;37.50;;;-0.50;99.90;;;;;;4959002;28;20612;-78
2022/12/15 08:41:21;;;;;;;64.20;34.95;;;-0.40;99.90;;;;;;4974687;28;20538;-78
2022/12/15 08:43:48;;;;;;;48.95;25.90;;;-0.40;99.90;;;;;;4975749;28;20187;-78
2022/12/15 08:46:15;;;;;;;41.95;24.33;;;-0.30;99.90;;;;;;4992472;28;20214;-78
2022/12/15 08:48:41;;;;;;;39.65;23.15;;;-0.30;99.90;;;;;;4974811;28;20709;-80
2022/12/15 08:51:07;;;;;;;46.03;25.33;;;-0.30;99.90;;;;;;4992002;28;20197;-78
2022/12/15 08:53:32;;;;;;;56.17;28.47;;;-0.30;99.90;;;;;;4974556;28;20193;-79
2022/12/15 08:56:11;;;;;;;55.37;28.10;;;-0.20;99.90;;;;;;4974841;28;20300;-78
2022/12/15 08:58:36;;;;;;;51.28;28.23;;;-0.30;99.90;;;;;;4991960;28;20174;-78
2022/12/15 09:01:08;;;;;;;53.07;28.67;;;-0.30;99.90;;;;;;4974047;28;20193;-78
2022/12/15 09:03:35;;;;;;;48.58;25.95;;;-0.30;99.90;;;;;;4991653;28;20178;-78
2022/12/15 09:06:03;;;;;;;70.30;36.45;;;-0.30;99.90;;;;;;4973679;28;20213;-78
2022/12/15 09:08:29;;;;;;;55.22;30.75;;;-0.20;99.90;;;;;;4974876;28;20191;-78
2022/12/15 09:10:57;;;;;;;46.30;26.42;;;0.00;99.90;;;;;;4974174;28;20729;-78
2022/12/15 09:13:23;;;;;;;56.95;28.00;;;0.10;99.90;;;;;;4974139;28;20712;-78
2022/12/15 09:16:12;;;;;;;52.80;29.00;;;0.10;99.90;;;;;;4991870;28;20186;-78
2022/12/15 09:18:40;;;;;;;58.33;29.55;;;0.20;99.90;;;;;;4974791;28;20452;-79
2022/12/15 09:21:07;;;;;;;54.15;27.73;;;0.20;99.90;;;;;;4974424;28;20254;-76
2022/12/15 09:23:34;;;;;;;56.25;31.95;;;0.30;99.90;;;;;;4942294;28;20248;-79
2022/12/15 09:26:05;;;;;;;57.92;31.92;;;0.50;99.90;;;;;;4974449;28;20225;-78
2022/12/15 09:28:31;;;;;;;59.38;29.65;;;0.50;99.90;;;;;;4991949;28;20174;-78
2022/12/15 09:31:11;;;;;;;50.00;28.37;;;0.50;99.90;;;;;;4974023;28;20193;-77
2022/12/15 09:33:38;;;;;;;55.15;28.38;;;0.50;99.90;;;;;;4992260;28;20871;-78
2022/12/15 09:36:04;;;;;;;49.00;29.20;;;0.60;99.90;;;;;;4991874;28;20898;-79
2022/12/15 09:38:33;;;;;;;52.50;29.13;;;0.70;99.90;;;;;;4974466;28;20192;-76
2022/12/15 09:41:07;;;;;;;49.28;28.73;;;0.80;99.90;;;;;;4973662;28;20597;-77
2022/12/15 09:43:36;;;;;;;52.75;28.42;;;0.80;99.90;;;;;;4991153;28;20455;-78
2022/12/15 09:46:13;;;;;;;53.47;28.85;;;0.80;99.90;;;;;;4973307;28;20248;-78
2022/12/15 09:48:43;;;;;;;53.33;26.80;;;0.80;99.90;;;;;;4990764;28;20214;-77
2022/12/15 09:51:14;;;;;;;48.08;26.98;;;0.70;99.90;;;;;;4957076;28;20708;-78
2022/12/15 09:53:40;;;;;;;52.25;27.15;;;0.80;99.90;;;;;;4973304;28;20279;-78
2022/12/15 09:56:16;;;;;;;46.67;26.23;;;0.80;99.90;;;;;;4973176;28;20282;-78
2022/12/15 09:58:58;;;;;;;50.88;28.77;;;0.70;99.90;;;;;;4990419;28;20282;-79
2022/12/15 10:01:32;;;;;;;57.03;29.25;;;0.70;99.90;;;;;;4972379;28;20211;-78
2022/12/15 10:04:24;;;;;;;50.15;27.95;;;0.70;99.90;;;;;;4990003;28;20182;-78
2022/12/15 10:07:03;;;;;;;53.70;28.92;;;0.70;99.90;;;;;;4966512;28;20190;-78
2022/12/15 10:09:29;;;;;;;51.47;28.20;;;0.80;99.90;;;;;;4972134;28;20242;-77
2022/12/15 10:12:00;;;;;;;47.92;26.42;;;0.90;99.90;;;;;;4991107;28;20201;-78
2022/12/15 10:14:41;;;;;;;44.10;24.88;;;0.80;99.90;;;;;;4955747;28;20625;-78
2022/12/15 10:17:09;;;;;;;50.83;26.45;;;0.70;99.90;;;;;;4972987;28;20611;-78
2022/12/15 10:19:59;;;;;;;46.85;27.80;;;0.80;99.90;;;;;;4972722;28;20216;-78
2022/12/15 10:22:30;;;;;;;51.92;27.95;;;0.90;99.90;;;;;;4991528;28;21063;-78
2022/12/15 10:25:00;;;;;;;48.22;26.83;;;0.90;99.90;;;;;;4972436;28;20225;-78
2022/12/15 10:28:07;;;;;;;62.63;29.90;;;0.90;99.90;;;;;;4971340;28;20584;-78
2022/12/15 10:30:34;;;;;;;72.72;35.00;;;0.80;99.90;;;;;;4955735;28;20823;-78
2022/12/15 10:33:19;;;;;;;50.38;28.30;;;0.70;99.90;;;;;;4988896;28;20217;-78
2022/12/15 10:35:45;;;;;;;50.83;26.45;;;0.70;99.90;;;;;;4990938;28;20200;-78
2022/12/15 10:38:37;;;;;;;52.67;29.40;;;0.60;99.90;;;;;;4973091;28;20186;-79
2022/12/15 10:41:07;;;;;;;53.25;28.48;;;0.60;99.90;;;;;;4973469;28;20193;-77
2022/12/15 10:43:36;;;;;;;59.42;30.73;;;0.70;99.90;;;;;;4989919;28;20187;-78
2022/12/15 10:46:17;;;;;;;56.80;28.20;;;0.80;99.90;;;;;;4971113;28;20214;-77
2022/12/15 10:49:06;;;;;;;62.92;35.72;;;0.80;99.90;;;;;;4971654;28;20193;-78
2022/12/15 10:51:37;;;;;;;55.85;28.58;;;0.70;99.90;;;;;;4980674;28;20214;-77
2022/12/15 10:54:12;;;;;;;59.47;29.30;;;0.80;99.90;;;;;;4971787;28;20194;-78
2022/12/15 10:56:53;;;;;;;54.35;31.13;;;0.90;99.90;;;;;;4972974;28;20193;-78
2022/12/15 10:59:43;;;;;;;54.58;29.13;;;0.80;99.90;;;;;;4989968;28;20186;-79
2022/12/15 11:02:24;;;;;;;57.17;29.15;;;0.90;99.90;;;;;;4978872;28;20796;-79
2022/12/15 11:05:08;;;;;;;52.85;28.15;;;0.90;99.90;;;;;;4971779;28;20213;-78
2022/12/15 11:07:54;;;;;;;51.95;27.95;;;0.90;99.90;;;;;;4971889;28;20179;-79
2022/12/15 11:10:23;;;;;;;61.45;31.55;;;0.90;99.90;;;;;;4989603;28;20190;-80
2022/12/15 11:13:11;;;;;;;58.92;27.90;;;0.90;99.90;;;;;;4989331;28;20199;-79
2022/12/15 11:15:44;;;;;;;57.70;28.90;;;1.00;99.90;;;;;;4972380;28;20190;-79
2022/12/15 11:18:18;;;;;;;61.28;30.13;;;1.00;99.90;;;;;;4989909;28;20273;-78
2022/12/15 11:20:53;;;;;;;58.55;29.02;;;1.00;99.90;;;;;;4971473;28;20184;-78
2022/12/15 11:23:25;;;;;;;76.82;36.20;;;1.10;99.90;;;;;;4971080;28;20217;-79
2022/12/15 11:25:57;;;;;;;56.40;28.42;;;1.10;99.90;;;;;;4970747;28;20890;-79
2022/12/15 11:28:33;;;;;;;60.90;29.67;;;1.10;99.90;;;;;;4971447;28;20762;-79
2022/12/15 11:31:35;;;;;;;52.50;29.80;;;1.20;99.90;;;;;;4988822;28;20197;-79
2022/12/15 11:34:01;;;;;;;57.05;31.23;;;1.10;99.90;;;;;;4970721;28;20317;-79
2022/12/15 11:36:50;;;;;;;67.43;32.70;;;1.20;99.90;;;;;;4970621;28;20402;-79
2022/12/15 11:39:50;;;;;;;57.63;29.45;;;1.30;99.90;;;;;;4988335;28;20864;-80
2022/12/15 11:42:41;;;;;;;58.75;31.15;;;1.30;99.90;;;;;;4965473;28;20650;-79
2022/12/15 11:45:56;;;;;;;64.55;31.13;;;1.20;99.90;;;;;;4972333;28;20317;-79
2022/12/15 11:48:34;;;;;;;63.40;31.10;;;1.30;99.90;;;;;;4931294;29;20330;-79
2022/12/15 11:51:10;;;;;;;60.45;31.40;;;1.30;99.90;;;;;;4931129;29;20188;-79
2022/12/15 11:53:42;;;;;;;61.63;32.65;;;1.40;99.90;;;;;;4967946;28;20698;-78
2022/12/15 11:56:41;;;;;;;63.10;33.95;;;1.40;99.90;;;;;;4992004;28;20191;-79
2022/12/15 11:59:10;;;;;;;66.28;31.35;;;1.30;99.90;;;;;;4991907;28;20258;-79
2022/12/15 12:01:54;;;;;;;87.30;40.88;;;1.40;99.90;;;;;;4974043;28;20209;-79
2022/12/15 12:04:22;;;;;;;79.10;36.67;;;1.50;99.90;;;;;;4991570;28;20779;-79
2022/12/15 12:07:14;;;;;;;61.10;32.08;;;1.50;99.90;;;;;;4991752;28;20699;-78
2022/12/15 12:10:08;;;;;;;62.20;30.85;;;1.40;99.90;;;;;;4985703;28;20186;-79
2022/12/15 12:13:00;;;;;;;67.60;33.45;;;1.30;99.90;;;;;;4991331;28;20278;-79
2022/12/15 12:15:41;;;;;;;72.93;41.30;;;1.30;99.90;;;;;;4963652;28;20202;-79
2022/12/15 12:18:25;;;;;;;64.85;35.17;;;1.40;99.90;;;;;;4991649;28;20186;-79
2022/12/15 12:21:07;;;;;;;62.75;32.95;;;1.50;99.90;;;;;;4991861;28;20163;-79
2022/12/15 12:23:57;;;;;;;82.63;41.10;;;1.50;99.90;;;;;;4992215;28;20213;-79
2022/12/15 12:26:27;;;;;;;61.92;26.60;;;1.60;99.90;;;;;;4974152;28;20216;-78
2022/12/15 12:29:10;;;;;;;58.72;31.88;;;1.50;99.90;;;;;;4991801;28;20177;-79
2022/12/15 12:32:00;;;;;;;63.78;31.48;;;1.40;99.90;;;;;;4978230;28;20200;-80
2022/12/15 12:34:49;;;;;;;55.50;30.85;;;1.50;99.90;;;;;;4981983;28;20198;-80
2022/12/15 12:37:22;;;;;;;54.75;28.45;;;1.50;99.90;;;;;;4971020;28;20204;-78
2022/12/15 12:39:49;;;;;;;48.58;26.75;;;1.50;99.90;;;;;;4999259;28;20182;-80
2022/12/15 12:42:26;;;;;;;56.83;28.85;;;1.30;99.90;;;;;;4980941;28;20214;-80
2022/12/15 12:44:51;;;;;;;58.65;29.60;;;1.30;99.90;;;;;;4998205;28;20686;-80
2022/12/15 12:47:25;;;;;;;54.60;26.60;;;1.20;99.90;;;;;;4981232;28;20187;-79
2022/12/15 12:49:57;;;;;;;50.22;28.48;;;1.20;99.90;;;;;;4998551;28;20185;-79
2022/12/15 12:52:28;;;;;;;53.20;29.13;;;1.20;99.90;;;;;;4997522;28;20252;-79
2022/12/15 12:55:12;;;;;;;59.75;31.35;;;1.20;99.90;;;;;;4995018;28;20186;-80
2022/12/15 12:57:40;;;;;;;50.55;28.58;;;1.20;99.90;;;;;;4976026;28;20201;-79
2022/12/15 13:00:41;;;;;;;54.70;27.20;;;1.20;99.90;;;;;;4991136;28;20183;-78
2022/12/15 13:03:15;;;;;;;54.08;25.00;;;1.20;99.90;;;;;;4987208;28;20213;-79
2022/12/15 13:05:42;;;;;;;48.38;25.85;;;1.10;99.90;;;;;;4990010;28;20289;-78
2022/12/15 13:08:07;;;;;;;48.03;25.35;;;1.10;99.90;;;;;;4972851;28;20218;-78
2022/12/15 13:10:42;;;;;;;40.50;23.00;;;1.10;99.90;;;;;;4972827;28;20186;-78
2022/12/15 13:13:26;;;;;;;43.28;24.80;;;1.10;99.90;;;;;;4990103;28;20289;-78
2022/12/15 13:16:18;;;;;;;39.40;22.67;;;1.00;99.90;;;;;;4972495;28;20576;-78
2022/12/15 13:18:56;;;;;;;44.90;24.67;;;0.90;99.90;;;;;;4991066;28;20185;-79
2022/12/15 13:21:40;;;;;;;38.10;21.95;;;1.00;99.90;;;;;;4973403;28;20228;-79
2022/12/15 13:24:26;;;;;;;47.40;24.60;;;1.00;99.90;;;;;;4993060;28;20182;-79
2022/12/15 13:27:01;;;;;;;39.70;21.77;;;1.00;99.90;;;;;;4993404;28;20229;-79
2022/12/15 13:29:27;;;;;;;38.00;22.02;;;1.00;99.90;;;;;;4992853;28;20259;-79
2022/12/15 13:31:53;;;;;;;38.70;22.93;;;1.00;99.90;;;;;;4992637;28;20483;-79
2022/12/15 13:34:24;;;;;;;47.87;24.90;;;1.00;99.90;;;;;;4975148;28;20179;-79
2022/12/15 13:36:52;;;;;;;37.80;20.70;;;1.20;99.90;;;;;;4992746;28;20266;-78
2022/12/15 13:39:18;;;;;;;39.95;21.50;;;1.00;99.90;;;;;;4974938;28;20190;-78
2022/12/15 13:42:03;;;;;;;37.63;19.97;;;1.00;99.90;;;;;;4974744;28;20236;-77
2022/12/15 13:44:38;;;;;;;41.83;21.40;;;1.10;99.90;;;;;;4974460;28;20739;-79
2022/12/15 13:47:17;;;;;;;48.70;24.65;;;1.10;99.90;;;;;;4991783;28;20205;-78
2022/12/15 13:50:05;;;;;;;45.28;23.92;;;1.20;99.90;;;;;;4974654;28;20191;-78
2022/12/15 13:52:48;;;;;;;42.33;23.13;;;1.10;99.90;;;;;;4974318;28;20211;-78
2022/12/15 13:55:22;;;;;;;38.22;21.17;;;1.20;99.90;;;;;;4992313;28;20185;-78
2022/12/15 13:58:20;;;;;;;41.80;22.13;;;1.20;99.90;;;;;;4974956;28;20626;-77
2022/12/15 14:00:57;;;;;;;42.95;22.52;;;1.20;99.90;;;;;;4976653;28;20203;-78
2022/12/15 14:03:23;;;;;;;57.72;30.63;;;1.20;99.90;;;;;;4991767;28;20214;-77
2022/12/15 14:05:58;;;;;;;55.20;28.63;;;1.20;99.90;;;;;;4991562;28;20206;-78
2022/12/15 14:08:27;;;;;;;61.78;33.00;;;1.20;99.90;;;;;;4973674;28;20198;-77
2022/12/15 14:10:55;;;;;;;50.13;26.38;;;1.20;99.90;;;;;;4975159;28;20221;-77
2022/12/15 14:13:24;;;;;;;58.80;29.38;;;1.20;99.90;;;;;;4991062;28;20218;-78
2022/12/15 14:16:11;;;;;;;43.10;24.00;;;1.20;99.90;;;;;;4990798;28;20262;-78
2022/12/15 14:18:40;;;;;;;51.35;27.30;;;1.10;99.90;;;;;;4972049;28;20674;-78
2022/12/15 14:21:29;;;;;;;66.35;33.55;;;1.10;99.90;;;;;;4972274;28;20728;-77
2022/12/15 14:23:56;;;;;;;53.30;26.42;;;1.10;99.90;;;;;;4971656;28;20202;-77
2022/12/15 14:26:29;;;;;;;45.13;23.30;;;1.10;99.90;;;;;;4956039;28;20211;-77
2022/12/15 14:29:00;;;;;;;43.83;22.40;;;1.10;99.90;;;;;;4989912;28;20570;-77
2022/12/15 14:31:26;;;;;;;47.47;23.73;;;1.00;99.90;;;;;;4971688;28;20206;-76
2022/12/15 14:34:02;;;;;;;45.10;23.50;;;1.20;99.90;;;;;;4971640;28;20189;-78
2022/12/15 14:36:29;;;;;;;43.25;24.77;;;1.00;99.90;;;;;;4989131;28;20417;-77
2022/12/15 14:39:02;;;;;;;60.33;33.25;;;0.90;99.90;;;;;;4972389;28;20266;-77
2022/12/15 14:41:30;;;;;;;294.13;145.95;;;0.90;99.90;;;;;;4988791;28;20658;-77
2022/12/15 14:44:00;;;;;;;158.02;64.65;;;0.80;99.90;;;;;;4971133;28;20292;-77
2022/12/15 14:46:28;;;;;;;284.33;89.18;;;0.80;99.90;;;;;;4988805;28;20585;-77
2022/12/15 14:48:57;;;;;;;124.65;46.65;;;0.80;99.90;;;;;;4989354;28;20181;-77
2022/12/15 14:51:24;;;;;;;41.53;23.45;;;0.80;99.90;;;;;;4988983;28;20205;-77
2022/12/15 14:53:52;;;;;;;42.38;22.67;;;0.80;99.90;;;;;;4971207;28;20197;-77
2022/12/15 14:56:17;;;;;;;41.20;21.73;;;0.80;99.90;;;;;;4988928;28;20199;-77
2022/12/15 14:58:56;;;;;;;51.30;23.63;;;0.80;99.90;;;;;;4989000;28;20185;-76
2022/12/15 15:02:00;;;;;;;54.58;25.77;;;0.80;99.90;;;;;;4988869;28;20708;-77
2022/12/15 15:04:33;;;;;;;100.78;47.25;;;0.80;99.90;;;;;;4985503;28;20190;-77
2022/12/15 15:07:01;;;;;;;113.20;51.10;;;0.80;99.90;;;;;;4988734;28;20183;-77
2022/12/15 15:09:41;;;;;;;116.03;55.10;;;0.80;99.90;;;;;;4987890;28;20692;-77
2022/12/15 15:12:18;;;;;;;53.88;28.75;;;0.80;99.90;;;;;;4988145;28;20199;-77
2022/12/15 15:14:48;;;;;;;51.85;30.02;;;0.80;99.90;;;;;;4988204;28;20246;-77
2022/12/15 15:17:21;;;;;;;53.90;26.15;;;0.80;99.90;;;;;;4970422;28;20201;-78
2022/12/15 15:19:59;;;;;;;88.13;38.20;;;0.80;99.90;;;;;;4989381;28;20257;-77
2022/12/15 15:22:39;;;;;;;78.95;42.30;;;0.80;99.90;;;;;;4991619;28;20218;-77
2022/12/15 15:25:27;;;;;;;57.28;28.05;;;0.70;99.90;;;;;;4992195;28;20229;-77